Chingmei, Taiwan
Current Conditions -  °F | °C
As of 11:30 AM on Sunday 23 Nov 2014 (Local Time) from RCSS Reporting Station
Scattered Clouds Scattered Clouds  
Wind Chill: 86°   Ceiling: Unl
Heat Index: 86°   Visibility: 6mi
Dew Point: 61°   Wind: 15mph
Humidity: 43%   Direction: 120°ESE
Pressure: 30"   Gusts: NA
Location:  25°N, 121.55°E
Report Text: RCSS 230330Z 12013KT 9999 FEW025 SCT050 30/16 Q1016 NOSIGRMK A3003
Loading
Personal Weather Stations






























Interactive Weather Map New forecast layout! Learn more

10-Day Weather Forecast

Advertisements
Track Severe Weather on mobile